University of Illinois Willard Airport
KCMI : now visible

Airfield :











YOU CAN JOIN US ON...

 
LOGIN :

Register | Disclaimer

   EN    FR    IT 

 









Legend :    VFR   Marginal VFR   IFR   Intensive IFR   Very Intensive IFR
Visi :
Ceiling :
>= 8 km
>= 3000ft
5 to 8 km
1000 to 3000 ft
1500m to 5 km
500 to 1000 ft
800 to 1500m
200 to 500 ft
< 800m
< 200 ft
Symbols :   Thunderstorms  Fog  Heavy snow  Heavy precipitations  Wind > 20 kt






- Airport Elevation : 755 ft
- IATA code : CMI


KCMI - University of Illinois Willard

CURRENT METAR :
  • 251953Z 06017KT 8SM OVC008 01/M01 A2977 RMK AO2 PK WND 06027/1857 FZRAE04 SLP088 P0002 I1000 T00061011

EXPIRED METARs :
  • 251910Z 07018KT 7SM OVC008 00/M02 A2980 RMK AO2 PK WND 06027/1857 FZRAE04 P0001 I1000 T00001017
  • 251853Z 07019G28KT 7SM -FZRA OVC008 00/M02 A2979 RMK AO2 PK WND 07028/1849 SLP095 P0000 I1000 T00001017
  • 251753Z 07017KT 5SM -FZRA OVC007 00/M02 A2986 RMK AO2 PRESFR SLP119 P0000 60000 I1002 I6002 T00001017 10000 21011 58035
  • 251715Z 07018KT 3SM -FZRA BKN007 OVC044 M01/M02 A2990 RMK AO2 SFC VIS 3 P0000 I1001 T10061022
  • 251702Z 06017G23KT 3SM -FZRA SCT007 BKN045 OVC055 M01/M02 A2992 RMK AO2 P0000 I1001 T10061022
  • 251653Z 06017KT 2 1/2SM -FZRA SCT007 BKN042 OVC060 M01/M02 A2993 RMK AO2 TWR VIS 3 UPB47E51FZRAB52SNE47 PRESFR SLP142 P0000 I1000 T10061022

TAF KCMI
Valid from the 25 at 18:00 until the 26 at 18:00 UTC


251738Z 2518/2618 07014G24KT 3SM -FZRASN BR OVC013
FM252000 07016G24KT P6SM OVC015
FM252300 07017G27KT 5SM -FZRA BR OVC008
FM260600 06012G20KT P6SM OVC005
FM261200 05006KT P6SM OVC004
KZAU FIR / North America



MET'MAP, your aeronautical weather chart ! - Copyright ORBIFLY December 2007 - Disclaimer

ORBIFLY MET'MAP TEAM :

Programming & Development : Alexandra Zaïnal
Concept & original design : Baudouin d'Aumeries
Assistance for programming : Marc-Olivier Méhu
Technical & hardware support : Manuel Goepfert

Contact : metmap@orbifly.com




SOURCES & CREDITS :

   NOAA       Earth
Advisory